Alto, Georgia
Current Conditions -  °F | °C
As of 6:55 PM on Monday 22 Dec 2014 (Local Time) from KTOC Reporting Station
Moderate Rain Moderate Rain  
Wind Chill: 40°   Ceiling: 400
Heat Index: 43°   Visibility: 4mi
Dew Point: 42°   Wind: 5mph
Humidity: 97%   Direction: 100°E
Pressure: 29.98"   Gusts: NA
Location:  34.47°N, 83.57°W
Report Text: KTOC 222355Z AUTO 10004KT 4SM RA OVC004 06/06 A2998 RMK AO2 T00600056 10068 20060
Loading
Personal Weather Stations






























Interactive Weather Map New forecast layout! Learn more

10-Day Weather Forecast

Advertisements
Track Severe Weather on mobile